MZBZ/BZE METAR and TAF weather

Enter ICAO airport designator
Station Type Date Time Source
MZBZ METAR 2022/11/27 00:00 UTC NOAA

MZBZ 270000Z 09004KT 9999 FEW021 27/25 A2991 Q1013 NOSIG


Station Type Date Time Source
MZBZ Decoded METAR 2022/11/27 00:00 UTC NOAA

Belize / Phillip Goldston Intl. Airport, Belize (MZBZ) 17-32N 088-18W 5M
Nov 26, 2022 - 07:00 PM EST / 2022.11.27 0000 UTC
Wind: from the E (090 degrees) at 5 MPH (4 KT):0
Visibility: greater than 7 mile(s):0
Sky conditions: mostly clear
Temperature: 80 F (27 C)
Dew Point: 77 F (25 C)
Relative Humidity: 88%
Pressure (altimeter): 29.91 in. Hg (1012 hPa)
ob: MZBZ 270000Z 09004KT 9999 FEW021 27/25 A2991 Q1013 NOSIG
cycle: 0

Station Type Date Time Source
MZBZ TAF 2022/11/27 06:04 UTC NOAA

TAF MZBZ 270300Z 2706/2806 VRB03KT 9999 SCT020 PROB30
TEMPO 2706/2716 5000 SHRA BKN015
BECMG 2714/2716 10006KT

Example: see airport list